Newport, VT

3:24 AM EDT on July 21, 2017 (GMT -0400)
Newport State

Weather History for KEFK - April, 2013

Change the Weather History Date:

Friday, April 5, 2013

  Actual Average Record
Temperature  
Mean Temperature 34 °F -  
Max Temperature 40 °F 47 °F 72 °F (1948)
Min Temperature 28 °F 29 °F -1 °F (1954)
Degree Days  
Heating Degree Days 30    
Moisture  
Dew Point 21 °F    
Average Humidity 56    
Maximum Humidity 85    
Minimum Humidity 39    
Precipitation  
Precipitation 0.00 in - - ()
Sea Level Pressure  
Sea Level Pressure 29.81 in    
Wind  
Wind Speed 7 mph (WSW)    
Max Wind Speed 18 mph    
Max Gust Speed 25 mph    
Visibility 10 miles    
Events Rain , Snow    
Averages and records for this station are not official NWS values.
T = Trace of Precipitation, MM = Missing Value Source: NWS Daily Summary

Daily Weather History Graph

Daily Weather History Graph

Search for Another Location

Airport or City:

Trip Planner

Search our weather history database for the weather conditions in past years. The results will help you decide how hot, cold, wet, or windy it might be!

Date:

Astronomy

Apr. 05, 2013 Rise Set
Actual Time 6:21 AM EDT 7:21 PM EDT
Civil Twilight 5:52 AM EDT 7:51 PM EDT
Nautical Twilight 5:16 AM EDT 8:27 PM EDT
Astronomical Twilight 4:39 AM EDT 9:05 PM EDT
Moon 3:39 AM EDT (4/5) 2:31 PM EDT (4/5)
Length of Visible Light 13h 59m
Length of Day
13h 00m
Waning Crescent, 24% of the Moon is Illuminated
Apr 5
Waning Crescent
Apr 10
New
Apr 18
First Quarter
Apr 25
Full
May 2
Last Quarter

Hourly Weather History & Observations

Time (EDT) Temp. Windchill Dew Point Humidity Pressure Visibility Wind Dir Wind Speed Gust Speed Precip Events Conditions
12:15 AM 37.4 °F 33.8 °F 16.0 °F 42% 29.87 in 10.0 mi South 4.6 mph - N/A   Clear
12:35 AM 37.0 °F 31.6 °F 16.3 °F 43% 29.86 in 10.0 mi South 6.9 mph - N/A   Clear
12:55 AM 37.2 °F 31.2 °F 16.5 °F 43% 29.85 in 10.0 mi South 8.1 mph - N/A   Clear
1:15 AM 37.6 °F 32.3 °F 16.2 °F 42% 29.85 in 10.0 mi South 6.9 mph - N/A   Clear
1:35 AM 36.9 °F 31.4 °F 16.7 °F 44% 29.84 in 10.0 mi South 6.9 mph - N/A   Clear
1:55 AM 36.0 °F 32.1 °F 17.2 °F 47% 29.83 in 10.0 mi South 4.6 mph - N/A   Clear
2:15 AM 35.2 °F 30.3 °F 18.0 °F 49% 29.82 in 10.0 mi South 5.8 mph - N/A   Clear
2:35 AM 36.3 °F 30.8 °F 17.4 °F 46% 29.82 in 10.0 mi South 6.9 mph - N/A   Clear
2:55 AM 34.5 °F 30.4 °F 18.5 °F 52% 29.82 in 10.0 mi WSW 4.6 mph - N/A   Clear
3:15 AM 33.3 °F 28.9 °F 18.0 °F 53% 29.81 in 10.0 mi SSW 4.6 mph - N/A   Clear
3:35 AM 34.9 °F 29.9 °F 18.3 °F 51% 29.81 in 10.0 mi SSW 5.8 mph - N/A   Clear
3:55 AM 32.5 °F 28.1 °F 19.2 °F 58% 29.81 in 10.0 mi SSW 4.6 mph - N/A   Clear
4:15 AM 32.5 °F 27.1 °F 18.7 °F 57% 29.80 in 10.0 mi SSW 5.8 mph - N/A   Clear
4:35 AM 33.4 °F 28.1 °F 19.0 °F 56% 29.80 in 10.0 mi SW 5.8 mph - N/A   Clear
4:55 AM 33.3 °F 28.9 °F 18.3 °F 54% 29.80 in 10.0 mi SSW 4.6 mph - N/A   Scattered Clouds
5:15 AM 36.1 °F 30.6 °F 16.9 °F 46% 29.80 in 10.0 mi South 6.9 mph - N/A   Clear
5:35 AM 36.5 °F 31.8 °F 16.2 °F 44% 29.80 in 10.0 mi South 5.8 mph - N/A   Clear
5:55 AM 36.5 °F 32.7 °F 16.5 °F 44% 29.79 in 10.0 mi South 4.6 mph - N/A   Clear
6:15 AM 35.6 °F 31.7 °F 17.4 °F 48% 29.79 in 10.0 mi South 4.6 mph - N/A   Mostly Cloudy
6:35 AM 35.6 °F 30.7 °F 17.4 °F 48% 29.79 in 10.0 mi South 5.8 mph - N/A   Mostly Cloudy
6:55 AM 35.2 °F 31.2 °F 18.3 °F 50% 29.79 in 10.0 mi SSW 4.6 mph - N/A   Mostly Cloudy
7:15 AM 35.2 °F 31.2 °F 18.0 °F 49% 29.79 in 10.0 mi South 4.6 mph - N/A   Scattered Clouds
7:35 AM 37.6 °F 32.3 °F 17.8 °F 45% 29.79 in 10.0 mi South 6.9 mph - N/A   Scattered Clouds
7:55 AM 38.1 °F 34.6 °F 18.3 °F 45% 29.79 in 10.0 mi South 4.6 mph - N/A   Mostly Cloudy
8:15 AM 38.5 °F 34.1 °F 18.5 °F 45% 29.79 in 10.0 mi SSW 5.8 mph - N/A   Overcast
8:35 AM 38.5 °F 33.4 °F 19.0 °F 46% 29.78 in 10.0 mi SSW 6.9 mph - N/A   Overcast
8:55 AM 38.3 °F 30.9 °F 19.8 °F 47% 29.78 in 10.0 mi WSW 11.5 mph 19.6 mph N/A   Overcast
9:15 AM 39.2 °F 32.5 °F 21.6 °F 49% 29.77 in 10.0 mi SW 10.4 mph - N/A   Overcast
9:35 AM 38.3 °F 32.5 °F 22.6 °F 53% 29.78 in 10.0 mi South 8.1 mph - N/A   Overcast
9:55 AM 38.3 °F 31.9 °F 23.0 °F 54% 29.77 in 10.0 mi SSW 9.2 mph - N/A   Overcast
10:15 AM 39.2 °F 34.2 °F 23.2 °F 53% 29.77 in 10.0 mi South 6.9 mph - N/A   Overcast
10:35 AM 39.7 °F 35.6 °F 23.5 °F 52% 29.77 in 10.0 mi SSW 5.8 mph - N/A   Overcast
10:55 AM 40.1 °F 34.7 °F 18.5 °F 42% 29.77 in 10.0 mi WSW 8.1 mph - N/A   Overcast
11:15 AM 39.6 °F 33.0 °F 16.5 °F 39% 29.78 in 10.0 mi West 10.4 mph 16.1 mph N/A   Overcast
11:35 AM 39.2 °F 33.6 °F 17.1 °F 41% 29.79 in 10.0 mi WSW 8.1 mph - N/A   Overcast
12:15 PM 37.6 °F 30.0 °F 21.4 °F 52% 29.79 in 7.0 mi West 11.5 mph 16.1 mph N/A   Overcast
12:35 PM 37.4 °F 30.8 °F 24.4 °F 60% 29.80 in 7.0 mi West 9.2 mph - N/A   Overcast
12:55 PM 38.5 °F 31.1 °F 25.9 °F 61% 29.80 in 7.0 mi West 11.5 mph 18.4 mph N/A   Overcast
1:15 PM 36.7 °F 31.2 °F 26.8 °F 67% 29.79 in 10.0 mi NW 6.9 mph - N/A   Overcast
1:35 PM 36.1 °F 32.3 °F 28.0 °F 72% 29.79 in 5.0 mi WNW 4.6 mph - N/A Rain Light Rain
1:55 PM 37.6 °F 31.6 °F 27.9 °F 68% 29.79 in 10.0 mi WSW 8.1 mph - N/A   Overcast
2:15 PM 37.9 °F 32.7 °F 25.7 °F 61% 29.78 in 10.0 mi West 6.9 mph - N/A   Overcast
2:35 PM 38.3 °F 32.5 °F 24.3 °F 57% 29.78 in 10.0 mi WNW 8.1 mph - N/A   Overcast
2:55 PM 38.5 °F 31.1 °F 25.3 °F 59% 29.77 in 10.0 mi WSW 11.5 mph - N/A   Overcast
3:15 PM 36.3 °F 29.5 °F 27.9 °F 71% 29.78 in 5.0 mi West 9.2 mph - N/A Snow Light Snow
3:35 PM 34.9 °F 27.1 °F 28.6 °F 78% 29.78 in 4.0 mi WNW 10.4 mph 18.4 mph N/A Snow Light Snow
3:55 PM 35.6 °F 27.1 °F 30.9 °F 83% 29.77 in 10.0 mi WNW 12.7 mph 16.1 mph N/A   Overcast
4:15 PM 35.8 °F 26.9 °F 28.4 °F 75% 29.77 in 10.0 mi West 13.8 mph 20.7 mph N/A   Overcast
4:35 PM 36.1 °F 26.9 °F 27.9 °F 72% 29.77 in 10.0 mi West 15.0 mph 21.9 mph N/A   Overcast
4:55 PM 36.7 °F 28.4 °F 26.6 °F 67% 29.78 in 10.0 mi West 12.7 mph 19.6 mph N/A   Overcast
5:15 PM 37.8 °F 30.2 °F 26.2 °F 63% 29.78 in 10.0 mi West 11.5 mph 17.3 mph N/A   Mostly Cloudy
5:35 PM 37.6 °F 29.6 °F 25.9 °F 63% 29.79 in 10.0 mi NW 12.7 mph 19.6 mph N/A   Mostly Cloudy
5:55 PM 34.7 °F 28.1 °F 28.0 °F 77% 29.80 in 7.0 mi North 8.1 mph - N/A Snow Light Snow
6:15 PM 32.9 °F 25.9 °F 28.9 °F 85% 29.81 in 10.0 mi NNE 8.1 mph - N/A   Overcast
6:35 PM 33.4 °F 29.1 °F 29.3 °F 85% 29.82 in 10.0 mi NNE 4.6 mph - N/A   Overcast
6:55 PM 34.7 °F 28.1 °F 22.3 °F 61% 29.83 in 10.0 mi West 8.1 mph - N/A   Overcast
7:15 PM 34.2 °F 25.7 °F 20.5 °F 57% 29.83 in 10.0 mi West 11.5 mph 18.4 mph N/A   Overcast
7:35 PM 33.3 °F 26.4 °F 19.6 °F 57% 29.84 in 10.0 mi NW 8.1 mph 18.4 mph N/A   Overcast
7:55 PM 32.4 °F 25.3 °F 18.9 °F 58% 29.85 in 10.0 mi West 8.1 mph - N/A   Scattered Clouds
8:15 PM 32.4 °F 24.6 °F 17.4 °F 54% 29.86 in 10.0 mi West 9.2 mph - N/A   Mostly Cloudy
8:35 PM 32.2 °F 22.3 °F 16.2 °F 52% 29.87 in 10.0 mi WNW 13.8 mph 19.6 mph N/A   Overcast
8:55 PM 32.0 °F 24.2 °F 15.8 °F 51% 29.89 in 10.0 mi WNW 9.2 mph 18.4 mph N/A   Overcast
9:15 PM 30.9 °F 19.1 °F 18.7 °F 61% 29.90 in 10.0 mi NW 18.4 mph 25.3 mph N/A   Overcast
9:35 PM 30.0 °F 20.0 °F 18.3 °F 62% 29.90 in 10.0 mi NW 12.7 mph - N/A   Overcast
9:55 PM 29.8 °F 20.3 °F 16.9 °F 59% 29.91 in 10.0 mi NW 11.5 mph 16.1 mph N/A   Overcast
10:15 PM 29.7 °F 20.7 °F 15.1 °F 55% 29.91 in 10.0 mi NW 10.4 mph 17.3 mph N/A   Overcast
10:35 PM 29.7 °F 21.3 °F 13.5 °F 51% 29.91 in 10.0 mi WNW 9.2 mph - N/A   Overcast
10:55 PM 29.3 °F 17.7 °F 13.1 °F 51% 29.90 in 10.0 mi NW 16.1 mph 21.9 mph N/A   Overcast
11:15 PM 29.1 °F 19.4 °F 13.3 °F 52% 29.91 in 10.0 mi NW 11.5 mph 18.4 mph N/A   Overcast
11:55 PM 28.4 °F 18.5 °F 13.5 °F 54% 29.91 in 10.0 mi NNW 11.5 mph - N/A   Overcast